sensor_id;sensor_type;location;lat;lon;timestamp;P1;durP1;ratioP1;P2;durP2;ratioP2
21991;SDS011;11160;51.576;0.194;2022-07-29T00:00:13;40.45;;;38.33;;
21991;SDS011;11160;51.576;0.194;2022-07-29T00:02:41;40.40;;;38.30;;
21991;SDS011;11160;51.576;0.194;2022-07-29T00:05:08;45.05;;;42.60;;
21991;SDS011;11160;51.576;0.194;2022-07-29T00:07:36;44.55;;;42.05;;
21991;SDS011;11160;51.576;0.194;2022-07-29T00:10:03;45.53;;;43.08;;
21991;SDS011;11160;51.576;0.194;2022-07-29T00:12:31;43.92;;;41.47;;
21991;SDS011;11160;51.576;0.194;2022-07-29T00:14:58;43.38;;;40.95;;
21991;SDS011;11160;51.576;0.194;2022-07-29T00:17:26;40.72;;;38.55;;
21991;SDS011;11160;51.576;0.194;2022-07-29T00:19:53;40.85;;;38.63;;
21991;SDS011;11160;51.576;0.194;2022-07-29T00:22:21;43.80;;;41.47;;
21991;SDS011;11160;51.576;0.194;2022-07-29T00:24:48;43.28;;;41.00;;
21991;SDS011;11160;51.576;0.194;2022-07-29T00:27:16;40.67;;;38.53;;
21991;SDS011;11160;51.576;0.194;2022-07-29T00:29:44;37.85;;;35.83;;
21991;SDS011;11160;51.576;0.194;2022-07-29T00:32:11;42.25;;;39.97;;
21991;SDS011;11160;51.576;0.194;2022-07-29T00:34:39;44.58;;;42.17;;
21991;SDS011;11160;51.576;0.194;2022-07-29T00:37:25;42.80;;;40.58;;
21991;SDS011;11160;51.576;0.194;2022-07-29T00:39:53;40.88;;;38.72;;
21991;SDS011;11160;51.576;0.194;2022-07-29T00:42:21;37.83;;;35.67;;
21991;SDS011;11160;51.576;0.194;2022-07-29T00:44:48;42.38;;;40.08;;
21991;SDS011;11160;51.576;0.194;2022-07-29T00:47:17;44.58;;;42.10;;
21991;SDS011;11160;51.576;0.194;2022-07-29T00:49:44;45.30;;;42.78;;
21991;SDS011;11160;51.576;0.194;2022-07-29T00:52:11;43.05;;;40.80;;
21991;SDS011;11160;51.576;0.194;2022-07-29T00:54:42;41.65;;;39.40;;
21991;SDS011;11160;51.576;0.194;2022-07-29T00:57:10;64.32;;;60.85;;
21991;SDS011;11160;51.576;0.194;2022-07-29T00:59:38;49.75;;;47.13;;
21991;SDS011;11160;51.576;0.194;2022-07-29T01:02:06;39.17;;;37.03;;
21991;SDS011;11160;51.576;0.194;2022-07-29T01:04:33;46.72;;;44.25;;
21991;SDS011;11160;51.576;0.194;2022-07-29T01:07:01;48.72;;;46.15;;
21991;SDS011;11160;51.576;0.194;2022-07-29T01:09:33;48.67;;;46.05;;
21991;SDS011;11160;51.576;0.194;2022-07-29T01:12:20;48.63;;;46.03;;
21991;SDS011;11160;51.576;0.194;2022-07-29T01:14:51;42.83;;;40.53;;
21991;SDS011;11160;51.576;0.194;2022-07-29T01:17:27;43.03;;;40.63;;
21991;SDS011;11160;51.576;0.194;2022-07-29T01:19:58;49.20;;;46.45;;
21991;SDS011;11160;51.576;0.194;2022-07-29T01:30:52;56.38;;;53.28;;
21991;SDS011;11160;51.576;0.194;2022-07-29T01:33:22;51.20;;;48.42;;
21991;SDS011;11160;51.576;0.194;2022-07-29T01:36:14;53.25;;;50.35;;
21991;SDS011;11160;51.576;0.194;2022-07-29T01:39:02;48.30;;;45.70;;
21991;SDS011;11160;51.576;0.194;2022-07-29T01:41:34;49.78;;;47.15;;
21991;SDS011;11160;51.576;0.194;2022-07-29T01:44:11;58.35;;;55.25;;
21991;SDS011;11160;51.576;0.194;2022-07-29T01:49:29;35.88;;;34.05;;
21991;SDS011;11160;51.576;0.194;2022-07-29T01:52:05;48.40;;;45.75;;
21991;SDS011;11160;51.576;0.194;2022-07-29T01:54:45;52.80;;;49.92;;
21991;SDS011;11160;51.576;0.194;2022-07-29T01:57:27;50.40;;;47.75;;
21991;SDS011;11160;51.576;0.194;2022-07-29T01:59:58;53.50;;;50.70;;
21991;SDS011;11160;51.576;0.194;2022-07-29T02:02:37;52.15;;;49.25;;
21991;SDS011;11160;51.576;0.194;2022-07-29T02:05:08;52.78;;;50.00;;
21991;SDS011;11160;51.576;0.194;2022-07-29T02:07:40;56.53;;;53.50;;
21991;SDS011;11160;51.576;0.194;2022-07-29T02:10:11;54.97;;;52.05;;
21991;SDS011;11160;51.576;0.194;2022-07-29T02:12:39;49.20;;;46.60;;
21991;SDS011;11160;51.576;0.194;2022-07-29T02:15:16;54.28;;;51.33;;
21991;SDS011;11160;51.576;0.194;2022-07-29T02:17:45;69.43;;;65.72;;
21991;SDS011;11160;51.576;0.194;2022-07-29T02:20:18;69.13;;;65.45;;
21991;SDS011;11160;51.576;0.194;2022-07-29T02:22:46;51.25;;;48.42;;
21991;SDS011;11160;51.576;0.194;2022-07-29T02:25:16;56.88;;;53.88;;
21991;SDS011;11160;51.576;0.194;2022-07-29T02:27:45;58.27;;;55.17;;
21991;SDS011;11160;51.576;0.194;2022-07-29T02:30:15;62.15;;;58.85;;
21991;SDS011;11160;51.576;0.194;2022-07-29T02:32:44;68.07;;;64.53;;
21991;SDS011;11160;51.576;0.194;2022-07-29T02:35:14;80.00;;;75.88;;
21991;SDS011;11160;51.576;0.194;2022-07-29T02:37:43;53.10;;;50.25;;
21991;SDS011;11160;51.576;0.194;2022-07-29T02:40:33;47.42;;;44.88;;
21991;SDS011;11160;51.576;0.194;2022-07-29T02:43:05;52.65;;;49.85;;
21991;SDS011;11160;51.576;0.194;2022-07-29T02:45:34;56.17;;;53.23;;
21991;SDS011;11160;51.576;0.194;2022-07-29T02:48:04;82.35;;;78.05;;
21991;SDS011;11160;51.576;0.194;2022-07-29T02:50:44;77.35;;;73.32;;
21991;SDS011;11160;51.576;0.194;2022-07-29T02:53:17;61.92;;;58.60;;
21991;SDS011;11160;51.576;0.194;2022-07-29T02:55:49;61.78;;;58.58;;
21991;SDS011;11160;51.576;0.194;2022-07-29T02:58:29;54.20;;;51.35;;
21991;SDS011;11160;51.576;0.194;2022-07-29T03:01:11;54.28;;;51.50;;
21991;SDS011;11160;51.576;0.194;2022-07-29T03:03:48;63.78;;;60.38;;
21991;SDS011;11160;51.576;0.194;2022-07-29T03:06:19;67.72;;;64.20;;
21991;SDS011;11160;51.576;0.194;2022-07-29T03:09:04;62.80;;;59.47;;
21991;SDS011;11160;51.576;0.194;2022-07-29T03:11:39;69.55;;;65.88;;
21991;SDS011;11160;51.576;0.194;2022-07-29T03:14:19;67.82;;;64.25;;
21991;SDS011;11160;51.576;0.194;2022-07-29T03:16:47;66.88;;;63.40;;
21991;SDS011;11160;51.576;0.194;2022-07-29T03:19:18;63.03;;;59.70;;
21991;SDS011;11160;51.576;0.194;2022-07-29T03:21:47;66.38;;;62.88;;
21991;SDS011;11160;51.576;0.194;2022-07-29T03:27:12;59.20;;;56.03;;
21991;SDS011;11160;51.576;0.194;2022-07-29T03:29:40;65.88;;;62.47;;
21991;SDS011;11160;51.576;0.194;2022-07-29T03:32:15;66.95;;;63.55;;
21991;SDS011;11160;51.576;0.194;2022-07-29T03:34:49;74.10;;;70.30;;
21991;SDS011;11160;51.576;0.194;2022-07-29T03:37:16;67.47;;;63.95;;
21991;SDS011;11160;51.576;0.194;2022-07-29T03:39:43;71.40;;;67.75;;
21991;SDS011;11160;51.576;0.194;2022-07-29T03:42:13;60.92;;;57.72;;
21991;SDS011;11160;51.576;0.194;2022-07-29T03:44:42;66.72;;;63.20;;
21991;SDS011;11160;51.576;0.194;2022-07-29T03:47:14;66.22;;;62.85;;
21991;SDS011;11160;51.576;0.194;2022-07-29T03:49:47;63.08;;;59.70;;
21991;SDS011;11160;51.576;0.194;2022-07-29T03:52:16;56.92;;;54.03;;
21991;SDS011;11160;51.576;0.194;2022-07-29T03:54:43;72.30;;;68.63;;
21991;SDS011;11160;51.576;0.194;2022-07-29T03:57:11;62.88;;;59.50;;
21991;SDS011;11160;51.576;0.194;2022-07-29T03:59:41;77.25;;;73.32;;
21991;SDS011;11160;51.576;0.194;2022-07-29T04:02:10;53.83;;;51.08;;
21991;SDS011;11160;51.576;0.194;2022-07-29T04:04:40;72.57;;;68.88;;
21991;SDS011;11160;51.576;0.194;2022-07-29T04:07:11;63.05;;;59.80;;
21991;SDS011;11160;51.576;0.194;2022-07-29T04:09:39;72.90;;;69.10;;
21991;SDS011;11160;51.576;0.194;2022-07-29T04:12:06;75.85;;;71.95;;
21991;SDS011;11160;51.576;0.194;2022-07-29T04:14:34;73.85;;;70.05;;
21991;SDS011;11160;51.576;0.194;2022-07-29T04:17:01;72.15;;;68.50;;
21991;SDS011;11160;51.576;0.194;2022-07-29T04:19:30;62.40;;;59.20;;
21991;SDS011;11160;51.576;0.194;2022-07-29T04:21:58;71.30;;;67.65;;
21991;SDS011;11160;51.576;0.194;2022-07-29T04:24:26;73.00;;;69.25;;
21991;SDS011;11160;51.576;0.194;2022-07-29T04:26:53;76.55;;;72.55;;
21991;SDS011;11160;51.576;0.194;2022-07-29T04:29:20;63.78;;;60.50;;
21991;SDS011;11160;51.576;0.194;2022-07-29T04:31:47;77.95;;;73.95;;
21991;SDS011;11160;51.576;0.194;2022-07-29T04:34:14;63.05;;;59.83;;
21991;SDS011;11160;51.576;0.194;2022-07-29T04:36:42;72.13;;;68.43;;
21991;SDS011;11160;51.576;0.194;2022-07-29T04:39:09;76.03;;;72.18;;
21991;SDS011;11160;51.576;0.194;2022-07-29T04:41:36;71.13;;;67.53;;
21991;SDS011;11160;51.576;0.194;2022-07-29T04:44:03;62.00;;;58.85;;
21991;SDS011;11160;51.576;0.194;2022-07-29T04:46:32;74.30;;;70.50;;
21991;SDS011;11160;51.576;0.194;2022-07-29T04:49:00;59.13;;;56.05;;
21991;SDS011;11160;51.576;0.194;2022-07-29T04:51:28;74.35;;;70.57;;
21991;SDS011;11160;51.576;0.194;2022-07-29T04:53:55;73.75;;;69.80;;
21991;SDS011;11160;51.576;0.194;2022-07-29T04:56:23;58.60;;;55.50;;
21991;SDS011;11160;51.576;0.194;2022-07-29T04:58:51;71.30;;;67.57;;
21991;SDS011;11160;51.576;0.194;2022-07-29T05:01:18;78.35;;;74.35;;
21991;SDS011;11160;51.576;0.194;2022-07-29T05:03:46;73.55;;;69.80;;
21991;SDS011;11160;51.576;0.194;2022-07-29T05:06:13;61.85;;;58.67;;
21991;SDS011;11160;51.576;0.194;2022-07-29T05:08:40;70.60;;;66.85;;
21991;SDS011;11160;51.576;0.194;2022-07-29T05:11:07;64.88;;;61.53;;
21991;SDS011;11160;51.576;0.194;2022-07-29T05:13:38;67.60;;;64.15;;
21991;SDS011;11160;51.576;0.194;2022-07-29T05:16:11;59.65;;;56.60;;
21991;SDS011;11160;51.576;0.194;2022-07-29T05:18:39;67.05;;;63.60;;
21991;SDS011;11160;51.576;0.194;2022-07-29T05:21:06;70.88;;;67.18;;
21991;SDS011;11160;51.576;0.194;2022-07-29T05:23:33;63.28;;;59.92;;
21991;SDS011;11160;51.576;0.194;2022-07-29T05:26:00;64.03;;;60.70;;
21991;SDS011;11160;51.576;0.194;2022-07-29T05:28:29;74.18;;;70.43;;
21991;SDS011;11160;51.576;0.194;2022-07-29T05:31:01;82.13;;;77.93;;
21991;SDS011;11160;51.576;0.194;2022-07-29T05:33:28;76.68;;;72.72;;
21991;SDS011;11160;51.576;0.194;2022-07-29T05:36:05;78.32;;;74.28;;
21991;SDS011;11160;51.576;0.194;2022-07-29T05:38:34;84.55;;;80.13;;
21991;SDS011;11160;51.576;0.194;2022-07-29T05:41:02;69.50;;;65.82;;
21991;SDS011;11160;51.576;0.194;2022-07-29T05:43:30;85.35;;;80.93;;
21991;SDS011;11160;51.576;0.194;2022-07-29T05:45:57;75.70;;;71.82;;
21991;SDS011;11160;51.576;0.194;2022-07-29T05:48:25;77.95;;;73.93;;
21991;SDS011;11160;51.576;0.194;2022-07-29T05:50:52;73.43;;;69.60;;
21991;SDS011;11160;51.576;0.194;2022-07-29T05:53:19;74.15;;;70.32;;
21991;SDS011;11160;51.576;0.194;2022-07-29T05:55:47;79.88;;;75.70;;
21991;SDS011;11160;51.576;0.194;2022-07-29T05:58:15;81.70;;;77.53;;
21991;SDS011;11160;51.576;0.194;2022-07-29T06:00:42;80.63;;;76.50;;
21991;SDS011;11160;51.576;0.194;2022-07-29T06:03:09;88.65;;;84.15;;
21991;SDS011;11160;51.576;0.194;2022-07-29T06:05:37;79.25;;;75.10;;
21991;SDS011;11160;51.576;0.194;2022-07-29T06:08:04;88.75;;;84.18;;
21991;SDS011;11160;51.576;0.194;2022-07-29T06:13:01;63.72;;;60.47;;
21991;SDS011;11160;51.576;0.194;2022-07-29T06:15:29;80.35;;;76.20;;
21991;SDS011;11160;51.576;0.194;2022-07-29T06:17:56;73.43;;;69.65;;
21991;SDS011;11160;51.576;0.194;2022-07-29T06:20:26;90.18;;;85.53;;
21991;SDS011;11160;51.576;0.194;2022-07-29T06:22:56;80.72;;;76.57;;
21991;SDS011;11160;51.576;0.194;2022-07-29T06:25:24;76.40;;;72.40;;
21991;SDS011;11160;51.576;0.194;2022-07-29T06:27:51;87.32;;;82.82;;
21991;SDS011;11160;51.576;0.194;2022-07-29T06:30:18;84.75;;;80.35;;
21991;SDS011;11160;51.576;0.194;2022-07-29T06:32:45;80.40;;;76.30;;
21991;SDS011;11160;51.576;0.194;2022-07-29T06:35:13;84.72;;;80.32;;
21991;SDS011;11160;51.576;0.194;2022-07-29T06:38:00;81.13;;;76.95;;
21991;SDS011;11160;51.576;0.194;2022-07-29T06:43:27;66.95;;;63.50;;
21991;SDS011;11160;51.576;0.194;2022-07-29T06:46:16;77.18;;;73.07;;
21991;SDS011;11160;51.576;0.194;2022-07-29T06:48:45;86.88;;;82.47;;
21991;SDS011;11160;51.576;0.194;2022-07-29T06:51:12;79.72;;;75.63;;
21991;SDS011;11160;51.576;0.194;2022-07-29T06:53:39;89.43;;;84.78;;
21991;SDS011;11160;51.576;0.194;2022-07-29T06:56:27;71.57;;;67.88;;
21991;SDS011;11160;51.576;0.194;2022-07-29T06:58:56;85.30;;;80.88;;
21991;SDS011;11160;51.576;0.194;2022-07-29T07:01:23;101.53;;;96.15;;
21991;SDS011;11160;51.576;0.194;2022-07-29T07:03:50;93.50;;;88.75;;
21991;SDS011;11160;51.576;0.194;2022-07-29T07:06:17;77.75;;;73.65;;
21991;SDS011;11160;51.576;0.194;2022-07-29T07:08:45;69.43;;;65.93;;
21991;SDS011;11160;51.576;0.194;2022-07-29T07:11:12;63.20;;;59.85;;
21991;SDS011;11160;51.576;0.194;2022-07-29T07:13:39;67.70;;;64.15;;
21991;SDS011;11160;51.576;0.194;2022-07-29T07:16:06;66.57;;;63.15;;
21991;SDS011;11160;51.576;0.194;2022-07-29T07:18:34;71.85;;;68.18;;
21991;SDS011;11160;51.576;0.194;2022-07-29T07:21:01;69.60;;;66.03;;
21991;SDS011;11160;51.576;0.194;2022-07-29T07:23:28;64.97;;;61.65;;
21991;SDS011;11160;51.576;0.194;2022-07-29T07:25:55;65.07;;;61.67;;
21991;SDS011;11160;51.576;0.194;2022-07-29T07:28:22;59.95;;;56.75;;
21991;SDS011;11160;51.576;0.194;2022-07-29T07:30:50;61.63;;;58.38;;
21991;SDS011;11160;51.576;0.194;2022-07-29T07:33:18;59.58;;;56.45;;
21991;SDS011;11160;51.576;0.194;2022-07-29T07:35:46;56.97;;;53.92;;
21991;SDS011;11160;51.576;0.194;2022-07-29T07:38:13;53.63;;;50.83;;
21991;SDS011;11160;51.576;0.194;2022-07-29T07:40:40;50.15;;;47.45;;
21991;SDS011;11160;51.576;0.194;2022-07-29T07:43:07;49.67;;;47.13;;
21991;SDS011;11160;51.576;0.194;2022-07-29T07:45:35;45.78;;;43.33;;
21991;SDS011;11160;51.576;0.194;2022-07-29T07:48:04;42.58;;;40.38;;
21991;SDS011;11160;51.576;0.194;2022-07-29T07:50:31;42.35;;;40.08;;
21991;SDS011;11160;51.576;0.194;2022-07-29T07:52:58;38.35;;;36.40;;
21991;SDS011;11160;51.576;0.194;2022-07-29T07:55:25;42.40;;;40.15;;
21991;SDS011;11160;51.576;0.194;2022-07-29T07:57:53;31.15;;;29.50;;
21991;SDS011;11160;51.576;0.194;2022-07-29T08:00:21;63.58;;;60.00;;
21991;SDS011;11160;51.576;0.194;2022-07-29T08:02:49;42.13;;;39.85;;
21991;SDS011;11160;51.576;0.194;2022-07-29T08:05:17;59.78;;;56.33;;
21991;SDS011;11160;51.576;0.194;2022-07-29T08:07:45;69.57;;;65.25;;
21991;SDS011;11160;51.576;0.194;2022-07-29T08:10:16;43.78;;;41.17;;
21991;SDS011;11160;51.576;0.194;2022-07-29T08:13:05;58.15;;;54.78;;
21991;SDS011;11160;51.576;0.194;2022-07-29T08:15:33;46.97;;;44.20;;
21991;SDS011;11160;51.576;0.194;2022-07-29T08:18:01;29.60;;;27.85;;
21991;SDS011;11160;51.576;0.194;2022-07-29T08:20:35;34.78;;;32.38;;
21991;SDS011;11160;51.576;0.194;2022-07-29T08:23:04;55.80;;;52.80;;
21991;SDS011;11160;51.576;0.194;2022-07-29T08:25:35;58.97;;;55.63;;
21991;SDS011;11160;51.576;0.194;2022-07-29T08:28:05;26.83;;;25.25;;
21991;SDS011;11160;51.576;0.194;2022-07-29T08:30:33;35.83;;;33.47;;
21991;SDS011;11160;51.576;0.194;2022-07-29T08:33:00;43.15;;;40.53;;
21991;SDS011;11160;51.576;0.194;2022-07-29T08:35:27;31.13;;;29.38;;
21991;SDS011;11160;51.576;0.194;2022-07-29T08:38:00;39.15;;;36.75;;
21991;SDS011;11160;51.576;0.194;2022-07-29T08:40:29;36.05;;;33.95;;
21991;SDS011;11160;51.576;0.194;2022-07-29T08:42:58;25.88;;;24.40;;
21991;SDS011;11160;51.576;0.194;2022-07-29T08:45:36;22.48;;;20.90;;
21991;SDS011;11160;51.576;0.194;2022-07-29T08:48:14;25.73;;;24.00;;
21991;SDS011;11160;51.576;0.194;2022-07-29T08:50:44;31.97;;;29.87;;
21991;SDS011;11160;51.576;0.194;2022-07-29T08:53:14;14.82;;;13.88;;
21991;SDS011;11160;51.576;0.194;2022-07-29T08:55:43;11.95;;;10.98;;
21991;SDS011;11160;51.576;0.194;2022-07-29T08:58:15;18.45;;;17.38;;
21991;SDS011;11160;51.576;0.194;2022-07-29T09:00:47;16.98;;;15.90;;
21991;SDS011;11160;51.576;0.194;2022-07-29T09:03:22;9.77;;;9.07;;
21991;SDS011;11160;51.576;0.194;2022-07-29T09:05:50;16.58;;;15.55;;
21991;SDS011;11160;51.576;0.194;2022-07-29T09:08:18;11.68;;;10.88;;
21991;SDS011;11160;51.576;0.194;2022-07-29T09:10:46;21.52;;;20.35;;
21991;SDS011;11160;51.576;0.194;2022-07-29T09:13:13;19.02;;;18.05;;
21991;SDS011;11160;51.576;0.194;2022-07-29T09:15:41;20.30;;;19.15;;
21991;SDS011;11160;51.576;0.194;2022-07-29T09:18:08;15.82;;;14.77;;
21991;SDS011;11160;51.576;0.194;2022-07-29T09:20:55;16.88;;;15.73;;
21991;SDS011;11160;51.576;0.194;2022-07-29T09:23:40;7.57;;;6.95;;
21991;SDS011;11160;51.576;0.194;2022-07-29T09:26:09;11.30;;;10.40;;
21991;SDS011;11160;51.576;0.194;2022-07-29T09:28:36;9.60;;;8.80;;
21991;SDS011;11160;51.576;0.194;2022-07-29T09:31:08;11.75;;;11.05;;
21991;SDS011;11160;51.576;0.194;2022-07-29T09:33:36;9.88;;;9.20;;
21991;SDS011;11160;51.576;0.194;2022-07-29T09:36:07;10.48;;;9.57;;
21991;SDS011;11160;51.576;0.194;2022-07-29T09:38:36;22.52;;;21.23;;
21991;SDS011;11160;51.576;0.194;2022-07-29T09:41:04;12.70;;;11.93;;
21991;SDS011;11160;51.576;0.194;2022-07-29T09:43:32;11.40;;;10.75;;
21991;SDS011;11160;51.576;0.194;2022-07-29T09:46:18;14.45;;;13.50;;
21991;SDS011;11160;51.576;0.194;2022-07-29T09:48:45;15.30;;;14.32;;
21991;SDS011;11160;51.576;0.194;2022-07-29T09:51:39;18.08;;;17.13;;
21991;SDS011;11160;51.576;0.194;2022-07-29T09:54:25;17.42;;;16.08;;
21991;SDS011;11160;51.576;0.194;2022-07-29T09:56:54;12.30;;;11.60;;
21991;SDS011;11160;51.576;0.194;2022-07-29T09:59:22;11.93;;;11.23;;
21991;SDS011;11160;51.576;0.194;2022-07-29T10:04:20;9.95;;;9.27;;
21991;SDS011;11160;51.576;0.194;2022-07-29T10:06:58;11.80;;;11.05;;
21991;SDS011;11160;51.576;0.194;2022-07-29T10:09:32;12.85;;;12.10;;
21991;SDS011;11160;51.576;0.194;2022-07-29T10:12:04;18.10;;;17.00;;
21991;SDS011;11160;51.576;0.194;2022-07-29T10:14:40;18.38;;;17.30;;
21991;SDS011;11160;51.576;0.194;2022-07-29T10:17:09;17.13;;;16.10;;
21991;SDS011;11160;51.576;0.194;2022-07-29T10:19:37;25.50;;;24.00;;
21991;SDS011;11160;51.576;0.194;2022-07-29T10:22:06;22.88;;;21.48;;
21991;SDS011;11160;51.576;0.194;2022-07-29T10:24:34;28.58;;;26.85;;
21991;SDS011;11160;51.576;0.194;2022-07-29T10:27:04;26.58;;;25.02;;
21991;SDS011;11160;51.576;0.194;2022-07-29T10:29:33;25.63;;;24.15;;
21991;SDS011;11160;51.576;0.194;2022-07-29T10:43:33;31.35;;;29.55;;
21991;SDS011;11160;51.576;0.194;2022-07-29T10:46:07;37.58;;;35.53;;
21991;SDS011;11160;51.576;0.194;2022-07-29T10:54:38;34.47;;;32.47;;
21991;SDS011;11160;51.576;0.194;2022-07-29T11:02:43;41.00;;;38.80;;
21991;SDS011;11160;51.576;0.194;2022-07-29T11:05:16;36.65;;;34.60;;
21991;SDS011;11160;51.576;0.194;2022-07-29T11:08:21;37.92;;;35.75;;
21991;SDS011;11160;51.576;0.194;2022-07-29T11:10:46;39.08;;;36.92;;
21991;SDS011;11160;51.576;0.194;2022-07-29T11:16:12;31.27;;;29.33;;
21991;SDS011;11160;51.576;0.194;2022-07-29T11:21:39;35.25;;;33.15;;
21991;SDS011;11160;51.576;0.194;2022-07-29T11:29:50;31.95;;;30.08;;
21991;SDS011;11160;51.576;0.194;2022-07-29T11:32:35;30.70;;;28.88;;
21991;SDS011;11160;51.576;0.194;2022-07-29T11:44:02;33.85;;;31.80;;
21991;SDS011;11160;51.576;0.194;2022-07-29T11:46:50;52.70;;;49.88;;
21991;SDS011;11160;51.576;0.194;2022-07-29T11:49:37;110.22;;;104.43;;
21991;SDS011;11160;51.576;0.194;2022-07-29T11:52:13;187.70;;;176.48;;
21991;SDS011;11160;51.576;0.194;2022-07-29T11:54:41;432.00;;;398.17;;
21991;SDS011;11160;51.576;0.194;2022-07-29T11:57:29;631.58;;;572.55;;
21991;SDS011;11160;51.576;0.194;2022-07-29T12:00:04;775.00;;;693.75;;
21991;SDS011;11160;51.576;0.194;2022-07-29T12:02:43;879.30;;;769.60;;
21991;SDS011;11160;51.576;0.194;2022-07-29T12:05:34;986.80;;;818.28;;
21991;SDS011;11160;51.576;0.194;2022-07-29T12:10:40;1030.13;;;864.97;;
21991;SDS011;11160;51.576;0.194;2022-07-29T12:13:09;1020.50;;;871.95;;
21991;SDS011;11160;51.576;0.194;2022-07-29T12:15:38;1026.63;;;886.27;;
21991;SDS011;11160;51.576;0.194;2022-07-29T12:18:19;1053.32;;;895.38;;
21991;SDS011;11160;51.576;0.194;2022-07-29T12:20:56;1090.90;;;906.47;;
21991;SDS011;11160;51.576;0.194;2022-07-29T12:23:30;1071.22;;;893.33;;
21991;SDS011;11160;51.576;0.194;2022-07-29T12:26:03;1065.97;;;902.25;;
21991;SDS011;11160;51.576;0.194;2022-07-29T12:28:37;1089.22;;;916.38;;
21991;SDS011;11160;51.576;0.194;2022-07-29T12:31:05;1069.10;;;910.53;;
21991;SDS011;11160;51.576;0.194;2022-07-29T12:33:39;992.45;;;881.00;;
21991;SDS011;11160;51.576;0.194;2022-07-29T12:36:06;975.20;;;860.10;;
21991;SDS011;11160;51.576;0.194;2022-07-29T12:38:42;952.58;;;845.10;;
21991;SDS011;11160;51.576;0.194;2022-07-29T12:41:09;890.47;;;798.22;;
21991;SDS011;11160;51.576;0.194;2022-07-29T12:43:45;822.80;;;741.03;;
21991;SDS011;11160;51.576;0.194;2022-07-29T12:46:19;763.03;;;692.33;;
21991;SDS011;11160;51.576;0.194;2022-07-29T12:48:49;724.22;;;658.60;;
21991;SDS011;11160;51.576;0.194;2022-07-29T12:54:04;803.28;;;723.38;;
21991;SDS011;11160;51.576;0.194;2022-07-29T12:56:34;856.53;;;768.15;;
21991;SDS011;11160;51.576;0.194;2022-07-29T12:59:31;886.85;;;794.80;;
21991;SDS011;11160;51.576;0.194;2022-07-29T13:01:57;1016.10;;;883.33;;
21991;SDS011;11160;51.576;0.194;2022-07-29T13:04:27;1034.03;;;903.03;;
21991;SDS011;11160;51.576;0.194;2022-07-29T13:07:13;1032.93;;;901.85;;
21991;SDS011;11160;51.576;0.194;2022-07-29T13:10:11;1001.22;;;892.58;;
21991;SDS011;11160;51.576;0.194;2022-07-29T13:12:39;933.58;;;835.85;;
21991;SDS011;11160;51.576;0.194;2022-07-29T13:15:13;963.28;;;860.15;;
21991;SDS011;11160;51.576;0.194;2022-07-29T13:17:41;976.97;;;871.88;;
21991;SDS011;11160;51.576;0.194;2022-07-29T13:20:13;1006.53;;;891.00;;
21991;SDS011;11160;51.576;0.194;2022-07-29T13:22:41;973.72;;;871.38;;
21991;SDS011;11160;51.576;0.194;2022-07-29T13:25:08;976.63;;;870.00;;
21991;SDS011;11160;51.576;0.194;2022-07-29T13:27:36;949.63;;;850.55;;
21991;SDS011;11160;51.576;0.194;2022-07-29T13:30:07;871.80;;;798.83;;
21991;SDS011;11160;51.576;0.194;2022-07-29T13:32:35;771.70;;;710.90;;
21991;SDS011;11160;51.576;0.194;2022-07-29T13:35:05;761.80;;;699.50;;
21991;SDS011;11160;51.576;0.194;2022-07-29T13:37:34;807.65;;;741.33;;
21991;SDS011;11160;51.576;0.194;2022-07-29T13:40:05;755.58;;;695.33;;
21991;SDS011;11160;51.576;0.194;2022-07-29T13:45:02;702.17;;;650.63;;
21991;SDS011;11160;51.576;0.194;2022-07-29T13:47:30;832.95;;;763.60;;
21991;SDS011;11160;51.576;0.194;2022-07-29T13:50:03;905.90;;;822.90;;
21991;SDS011;11160;51.576;0.194;2022-07-29T13:52:32;902.53;;;818.33;;
21991;SDS011;11160;51.576;0.194;2022-07-29T13:54:59;862.47;;;783.28;;
21991;SDS011;11160;51.576;0.194;2022-07-29T13:57:27;884.67;;;808.97;;
21991;SDS011;11160;51.576;0.194;2022-07-29T13:59:55;874.58;;;795.20;;
21991;SDS011;11160;51.576;0.194;2022-07-29T14:02:22;914.78;;;828.88;;
21991;SDS011;11160;51.576;0.194;2022-07-29T14:04:52;770.17;;;708.40;;
21991;SDS011;11160;51.576;0.194;2022-07-29T14:07:20;748.07;;;688.20;;
21991;SDS011;11160;51.576;0.194;2022-07-29T14:09:48;785.60;;;721.25;;
21991;SDS011;11160;51.576;0.194;2022-07-29T14:12:15;781.17;;;711.80;;
21991;SDS011;11160;51.576;0.194;2022-07-29T14:14:43;813.25;;;743.70;;
21991;SDS011;11160;51.576;0.194;2022-07-29T14:17:12;840.30;;;761.78;;
21991;SDS011;11160;51.576;0.194;2022-07-29T14:19:40;782.47;;;715.40;;
21991;SDS011;11160;51.576;0.194;2022-07-29T14:22:07;735.22;;;676.78;;
21991;SDS011;11160;51.576;0.194;2022-07-29T14:24:36;678.35;;;626.60;;
21991;SDS011;11160;51.576;0.194;2022-07-29T14:27:07;795.08;;;728.28;;
21991;SDS011;11160;51.576;0.194;2022-07-29T14:29:34;632.78;;;584.30;;
21991;SDS011;11160;51.576;0.194;2022-07-29T14:32:07;745.53;;;683.58;;
21991;SDS011;11160;51.576;0.194;2022-07-29T14:34:37;772.45;;;708.17;;
21991;SDS011;11160;51.576;0.194;2022-07-29T14:37:05;646.92;;;592.30;;
21991;SDS011;11160;51.576;0.194;2022-07-29T14:39:33;583.97;;;539.75;;
21991;SDS011;11160;51.576;0.194;2022-07-29T14:42:08;590.10;;;543.42;;
21991;SDS011;11160;51.576;0.194;2022-07-29T14:47:06;373.92;;;347.52;;
21991;SDS011;11160;51.576;0.194;2022-07-29T14:49:34;481.45;;;444.63;;
21991;SDS011;11160;51.576;0.194;2022-07-29T14:52:02;358.92;;;334.90;;
21991;SDS011;11160;51.576;0.194;2022-07-29T14:54:29;472.40;;;436.55;;
21991;SDS011;11160;51.576;0.194;2022-07-29T14:56:56;403.90;;;375.98;;
21991;SDS011;11160;51.576;0.194;2022-07-29T14:59:24;420.13;;;389.40;;
21991;SDS011;11160;51.576;0.194;2022-07-29T15:01:53;304.52;;;284.08;;
21991;SDS011;11160;51.576;0.194;2022-07-29T15:04:20;342.48;;;319.27;;
21991;SDS011;11160;51.576;0.194;2022-07-29T15:06:48;335.98;;;313.58;;
21991;SDS011;11160;51.576;0.194;2022-07-29T15:09:15;345.23;;;321.92;;
21991;SDS011;11160;51.576;0.194;2022-07-29T15:11:42;256.42;;;240.20;;
21991;SDS011;11160;51.576;0.194;2022-07-29T15:14:09;196.93;;;185.15;;
21991;SDS011;11160;51.576;0.194;2022-07-29T15:16:37;249.23;;;233.82;;
21991;SDS011;11160;51.576;0.194;2022-07-29T15:19:08;174.70;;;164.45;;
21991;SDS011;11160;51.576;0.194;2022-07-29T15:21:36;166.70;;;157.00;;
21991;SDS011;11160;51.576;0.194;2022-07-29T15:24:14;171.45;;;161.65;;
21991;SDS011;11160;51.576;0.194;2022-07-29T15:26:44;170.13;;;160.27;;
21991;SDS011;11160;51.576;0.194;2022-07-29T15:29:15;192.65;;;181.43;;
21991;SDS011;11160;51.576;0.194;2022-07-29T15:31:42;259.42;;;243.10;;
21991;SDS011;11160;51.576;0.194;2022-07-29T15:34:10;191.52;;;179.63;;
21991;SDS011;11160;51.576;0.194;2022-07-29T15:36:37;191.77;;;180.93;;
21991;SDS011;11160;51.576;0.194;2022-07-29T15:39:20;198.05;;;186.45;;
21991;SDS011;11160;51.576;0.194;2022-07-29T15:41:48;175.43;;;165.10;;
21991;SDS011;11160;51.576;0.194;2022-07-29T15:44:16;173.18;;;163.30;;
21991;SDS011;11160;51.576;0.194;2022-07-29T15:46:46;172.32;;;162.40;;
21991;SDS011;11160;51.576;0.194;2022-07-29T15:49:29;122.20;;;115.22;;